sensor_id;sensor_type;location;lat;lon;timestamp;P1;durP1;ratioP1;P2;durP2;ratioP2
51943;SDS011;37969;53.132;6.370;2022-08-21T00:00:27;8.75;;;4.32;;
51943;SDS011;37969;53.132;6.370;2022-08-21T00:03:00;10.63;;;4.75;;
51943;SDS011;37969;53.132;6.370;2022-08-21T00:05:32;6.90;;;4.07;;
51943;SDS011;37969;53.132;6.370;2022-08-21T00:08:01;13.07;;;4.30;;
51943;SDS011;37969;53.132;6.370;2022-08-21T00:10:28;4.90;;;3.50;;
51943;SDS011;37969;53.132;6.370;2022-08-21T00:12:54;7.63;;;4.20;;
51943;SDS011;37969;53.132;6.370;2022-08-21T00:15:22;7.82;;;3.78;;
51943;SDS011;37969;53.132;6.370;2022-08-21T00:17:49;10.57;;;5.47;;
51943;SDS011;37969;53.132;6.370;2022-08-21T00:20:16;12.40;;;5.18;;
51943;SDS011;37969;53.132;6.370;2022-08-21T00:22:43;9.32;;;4.45;;
51943;SDS011;37969;53.132;6.370;2022-08-21T00:25:11;7.82;;;4.60;;
51943;SDS011;37969;53.132;6.370;2022-08-21T00:27:38;11.15;;;4.63;;
51943;SDS011;37969;53.132;6.370;2022-08-21T00:30:05;10.50;;;5.10;;
51943;SDS011;37969;53.132;6.370;2022-08-21T00:32:32;9.07;;;4.60;;
51943;SDS011;37969;53.132;6.370;2022-08-21T00:35:00;10.52;;;5.78;;
51943;SDS011;37969;53.132;6.370;2022-08-21T00:37:29;8.40;;;5.15;;
51943;SDS011;37969;53.132;6.370;2022-08-21T00:39:58;6.80;;;5.03;;
51943;SDS011;37969;53.132;6.370;2022-08-21T00:42:26;9.85;;;5.35;;
51943;SDS011;37969;53.132;6.370;2022-08-21T00:45:00;8.85;;;5.60;;
51943;SDS011;37969;53.132;6.370;2022-08-21T00:47:27;8.43;;;5.45;;
51943;SDS011;37969;53.132;6.370;2022-08-21T00:49:54;15.70;;;6.22;;
51943;SDS011;37969;53.132;6.370;2022-08-21T00:52:23;14.55;;;6.07;;
51943;SDS011;37969;53.132;6.370;2022-08-21T00:54:50;7.93;;;5.00;;
51943;SDS011;37969;53.132;6.370;2022-08-21T00:57:23;11.23;;;5.25;;
51943;SDS011;37969;53.132;6.370;2022-08-21T00:59:55;11.25;;;5.55;;
51943;SDS011;37969;53.132;6.370;2022-08-21T01:02:32;10.07;;;5.53;;
51943;SDS011;37969;53.132;6.370;2022-08-21T01:05:00;8.30;;;5.40;;
51943;SDS011;37969;53.132;6.370;2022-08-21T01:07:30;9.50;;;5.28;;
51943;SDS011;37969;53.132;6.370;2022-08-21T01:09:57;8.80;;;5.15;;
51943;SDS011;37969;53.132;6.370;2022-08-21T01:12:23;8.75;;;5.20;;
51943;SDS011;37969;53.132;6.370;2022-08-21T01:14:50;9.65;;;5.43;;
51943;SDS011;37969;53.132;6.370;2022-08-21T01:17:17;10.45;;;5.43;;
51943;SDS011;37969;53.132;6.370;2022-08-21T01:19:47;10.70;;;5.82;;
51943;SDS011;37969;53.132;6.370;2022-08-21T01:22:14;14.18;;;6.20;;
51943;SDS011;37969;53.132;6.370;2022-08-21T01:24:40;9.57;;;6.22;;
51943;SDS011;37969;53.132;6.370;2022-08-21T01:27:13;9.80;;;5.93;;
51943;SDS011;37969;53.132;6.370;2022-08-21T01:29:43;12.57;;;5.68;;
51943;SDS011;37969;53.132;6.370;2022-08-21T01:34:38;11.70;;;5.70;;
51943;SDS011;37969;53.132;6.370;2022-08-21T01:37:05;11.65;;;6.50;;
51943;SDS011;37969;53.132;6.370;2022-08-21T01:39:33;13.38;;;6.57;;
51943;SDS011;37969;53.132;6.370;2022-08-21T01:42:00;10.10;;;5.80;;
51943;SDS011;37969;53.132;6.370;2022-08-21T01:44:27;11.45;;;6.28;;
51943;SDS011;37969;53.132;6.370;2022-08-21T01:46:53;10.50;;;6.05;;
51943;SDS011;37969;53.132;6.370;2022-08-21T01:49:20;11.18;;;6.03;;
51943;SDS011;37969;53.132;6.370;2022-08-21T01:51:49;8.23;;;5.75;;
51943;SDS011;37969;53.132;6.370;2022-08-21T01:54:15;10.32;;;5.55;;
51943;SDS011;37969;53.132;6.370;2022-08-21T01:56:46;9.60;;;6.13;;
51943;SDS011;37969;53.132;6.370;2022-08-21T01:59:14;9.40;;;5.95;;
51943;SDS011;37969;53.132;6.370;2022-08-21T02:01:40;11.20;;;6.38;;
51943;SDS011;37969;53.132;6.370;2022-08-21T02:04:07;11.98;;;6.00;;
51943;SDS011;37969;53.132;6.370;2022-08-21T02:06:33;9.45;;;6.78;;
51943;SDS011;37969;53.132;6.370;2022-08-21T02:09:01;12.95;;;7.40;;
51943;SDS011;37969;53.132;6.370;2022-08-21T02:11:29;12.43;;;7.45;;
51943;SDS011;37969;53.132;6.370;2022-08-21T02:14:06;9.88;;;6.50;;
51943;SDS011;37969;53.132;6.370;2022-08-21T02:16:37;14.20;;;8.07;;
51943;SDS011;37969;53.132;6.370;2022-08-21T02:19:05;15.32;;;7.82;;
51943;SDS011;37969;53.132;6.370;2022-08-21T02:21:34;11.90;;;8.10;;
51943;SDS011;37969;53.132;6.370;2022-08-21T02:24:00;13.77;;;8.00;;
51943;SDS011;37969;53.132;6.370;2022-08-21T02:26:28;14.15;;;7.47;;
51943;SDS011;37969;53.132;6.370;2022-08-21T02:28:55;14.07;;;7.82;;
51943;SDS011;37969;53.132;6.370;2022-08-21T02:31:24;17.10;;;8.43;;
51943;SDS011;37969;53.132;6.370;2022-08-21T02:33:51;14.32;;;8.60;;
51943;SDS011;37969;53.132;6.370;2022-08-21T02:36:20;13.18;;;8.25;;
51943;SDS011;37969;53.132;6.370;2022-08-21T02:38:46;13.73;;;8.68;;
51943;SDS011;37969;53.132;6.370;2022-08-21T02:41:16;12.77;;;8.95;;
51943;SDS011;37969;53.132;6.370;2022-08-21T02:43:43;10.20;;;8.30;;
51943;SDS011;37969;53.132;6.370;2022-08-21T02:46:15;15.73;;;8.68;;
51943;SDS011;37969;53.132;6.370;2022-08-21T02:48:45;13.90;;;9.05;;
51943;SDS011;37969;53.132;6.370;2022-08-21T02:51:13;12.52;;;8.48;;
51943;SDS011;37969;53.132;6.370;2022-08-21T02:53:45;14.88;;;8.30;;
51943;SDS011;37969;53.132;6.370;2022-08-21T02:56:13;15.73;;;9.50;;
51943;SDS011;37969;53.132;6.370;2022-08-21T02:58:41;14.00;;;9.35;;
51943;SDS011;37969;53.132;6.370;2022-08-21T03:01:09;16.83;;;9.20;;
51943;SDS011;37969;53.132;6.370;2022-08-21T03:03:36;14.75;;;9.68;;
51943;SDS011;37969;53.132;6.370;2022-08-21T03:06:07;15.13;;;9.70;;
51943;SDS011;37969;53.132;6.370;2022-08-21T03:08:38;17.80;;;11.85;;
51943;SDS011;37969;53.132;6.370;2022-08-21T03:11:04;14.70;;;10.00;;
51943;SDS011;37969;53.132;6.370;2022-08-21T03:13:31;21.30;;;11.07;;
51943;SDS011;37969;53.132;6.370;2022-08-21T03:15:58;15.80;;;10.77;;
51943;SDS011;37969;53.132;6.370;2022-08-21T03:18:29;19.90;;;10.73;;
51943;SDS011;37969;53.132;6.370;2022-08-21T03:20:58;21.42;;;11.40;;
51943;SDS011;37969;53.132;6.370;2022-08-21T03:23:24;16.10;;;10.48;;
51943;SDS011;37969;53.132;6.370;2022-08-21T03:25:50;19.38;;;10.95;;
51943;SDS011;37969;53.132;6.370;2022-08-21T03:28:20;18.93;;;10.47;;
51943;SDS011;37969;53.132;6.370;2022-08-21T03:30:50;19.02;;;10.25;;
51943;SDS011;37969;53.132;6.370;2022-08-21T03:33:20;18.13;;;11.07;;
51943;SDS011;37969;53.132;6.370;2022-08-21T03:35:54;13.95;;;10.18;;
51943;SDS011;37969;53.132;6.370;2022-08-21T03:38:29;15.60;;;10.60;;
51943;SDS011;37969;53.132;6.370;2022-08-21T03:40:55;17.00;;;10.70;;
51943;SDS011;37969;53.132;6.370;2022-08-21T03:43:22;15.77;;;11.18;;
51943;SDS011;37969;53.132;6.370;2022-08-21T03:45:48;17.10;;;12.32;;
51943;SDS011;37969;53.132;6.370;2022-08-21T03:48:14;20.95;;;11.25;;
51943;SDS011;37969;53.132;6.370;2022-08-21T03:50:43;17.92;;;11.15;;
51943;SDS011;37969;53.132;6.370;2022-08-21T03:53:12;15.65;;;10.05;;
51943;SDS011;37969;53.132;6.370;2022-08-21T03:55:39;18.25;;;10.85;;
51943;SDS011;37969;53.132;6.370;2022-08-21T03:58:07;20.50;;;11.18;;
51943;SDS011;37969;53.132;6.370;2022-08-21T04:00:34;18.92;;;10.60;;
51943;SDS011;37969;53.132;6.370;2022-08-21T04:03:00;12.88;;;9.82;;
51943;SDS011;37969;53.132;6.370;2022-08-21T04:05:32;20.25;;;11.50;;
51943;SDS011;37969;53.132;6.370;2022-08-21T04:08:00;18.30;;;10.73;;
51943;SDS011;37969;53.132;6.370;2022-08-21T04:10:28;16.30;;;10.20;;
51943;SDS011;37969;53.132;6.370;2022-08-21T04:12:56;18.40;;;11.23;;
51943;SDS011;37969;53.132;6.370;2022-08-21T04:15:25;22.65;;;11.43;;
51943;SDS011;37969;53.132;6.370;2022-08-21T04:17:52;16.40;;;10.20;;
51943;SDS011;37969;53.132;6.370;2022-08-21T04:20:20;14.65;;;10.98;;
51943;SDS011;37969;53.132;6.370;2022-08-21T04:22:58;14.52;;;9.70;;
51943;SDS011;37969;53.132;6.370;2022-08-21T04:25:29;19.73;;;10.73;;
51943;SDS011;37969;53.132;6.370;2022-08-21T04:28:00;19.60;;;10.80;;
51943;SDS011;37969;53.132;6.370;2022-08-21T04:30:28;15.13;;;11.25;;
51943;SDS011;37969;53.132;6.370;2022-08-21T04:32:58;18.65;;;10.88;;
51943;SDS011;37969;53.132;6.370;2022-08-21T04:35:25;17.23;;;10.50;;
51943;SDS011;37969;53.132;6.370;2022-08-21T04:37:54;19.25;;;9.85;;
51943;SDS011;37969;53.132;6.370;2022-08-21T04:40:25;12.65;;;10.23;;
51943;SDS011;37969;53.132;6.370;2022-08-21T04:42:57;15.98;;;10.50;;
51943;SDS011;37969;53.132;6.370;2022-08-21T04:45:29;23.05;;;11.13;;
51943;SDS011;37969;53.132;6.370;2022-08-21T04:47:58;17.35;;;10.05;;
51943;SDS011;37969;53.132;6.370;2022-08-21T04:50:39;17.08;;;10.40;;
51943;SDS011;37969;53.132;6.370;2022-08-21T04:53:07;17.73;;;10.20;;
51943;SDS011;37969;53.132;6.370;2022-08-21T04:55:38;15.73;;;11.85;;
51943;SDS011;37969;53.132;6.370;2022-08-21T04:58:06;16.92;;;9.80;;
51943;SDS011;37969;53.132;6.370;2022-08-21T05:00:35;18.65;;;10.43;;
51943;SDS011;37969;53.132;6.370;2022-08-21T05:03:12;19.63;;;10.70;;
51943;SDS011;37969;53.132;6.370;2022-08-21T05:05:44;19.73;;;9.80;;
51943;SDS011;37969;53.132;6.370;2022-08-21T05:08:14;17.92;;;10.65;;
51943;SDS011;37969;53.132;6.370;2022-08-21T05:10:41;16.38;;;10.43;;
51943;SDS011;37969;53.132;6.370;2022-08-21T05:13:10;15.55;;;10.25;;
51943;SDS011;37969;53.132;6.370;2022-08-21T05:15:38;20.35;;;10.50;;
51943;SDS011;37969;53.132;6.370;2022-08-21T05:18:10;20.88;;;10.63;;
51943;SDS011;37969;53.132;6.370;2022-08-21T05:20:36;19.83;;;10.95;;
51943;SDS011;37969;53.132;6.370;2022-08-21T05:23:07;19.10;;;9.80;;
51943;SDS011;37969;53.132;6.370;2022-08-21T05:25:35;20.35;;;10.55;;
51943;SDS011;37969;53.132;6.370;2022-08-21T05:28:04;16.45;;;10.57;;
51943;SDS011;37969;53.132;6.370;2022-08-21T05:30:39;18.20;;;9.90;;
51943;SDS011;37969;53.132;6.370;2022-08-21T05:33:07;18.35;;;9.82;;
51943;SDS011;37969;53.132;6.370;2022-08-21T05:35:39;16.98;;;9.95;;
51943;SDS011;37969;53.132;6.370;2022-08-21T05:38:05;18.15;;;9.93;;
51943;SDS011;37969;53.132;6.370;2022-08-21T05:40:33;17.40;;;10.32;;
51943;SDS011;37969;53.132;6.370;2022-08-21T05:42:59;14.25;;;9.43;;
51943;SDS011;37969;53.132;6.370;2022-08-21T05:45:27;16.95;;;9.18;;
51943;SDS011;37969;53.132;6.370;2022-08-21T05:47:56;17.52;;;9.32;;
51943;SDS011;37969;53.132;6.370;2022-08-21T05:50:25;16.75;;;8.98;;
51943;SDS011;37969;53.132;6.370;2022-08-21T05:52:51;14.88;;;9.15;;
51943;SDS011;37969;53.132;6.370;2022-08-21T05:55:20;19.02;;;9.55;;
51943;SDS011;37969;53.132;6.370;2022-08-21T05:57:47;22.83;;;9.25;;
51943;SDS011;37969;53.132;6.370;2022-08-21T06:00:20;15.38;;;8.52;;
51943;SDS011;37969;53.132;6.370;2022-08-21T06:02:48;17.75;;;9.57;;
51943;SDS011;37969;53.132;6.370;2022-08-21T06:05:15;17.58;;;8.73;;
51943;SDS011;37969;53.132;6.370;2022-08-21T06:10:14;15.00;;;8.43;;
51943;SDS011;37969;53.132;6.370;2022-08-21T06:12:40;15.75;;;7.45;;
51943;SDS011;37969;53.132;6.370;2022-08-21T06:15:08;16.25;;;7.65;;
51943;SDS011;37969;53.132;6.370;2022-08-21T06:17:35;17.55;;;7.80;;
51943;SDS011;37969;53.132;6.370;2022-08-21T06:20:05;17.60;;;7.63;;
51943;SDS011;37969;53.132;6.370;2022-08-21T06:22:31;13.25;;;7.88;;
51943;SDS011;37969;53.132;6.370;2022-08-21T06:25:01;16.50;;;7.03;;
51943;SDS011;37969;53.132;6.370;2022-08-21T06:27:41;15.02;;;7.13;;
51943;SDS011;37969;53.132;6.370;2022-08-21T06:30:11;16.85;;;7.00;;
51943;SDS011;37969;53.132;6.370;2022-08-21T06:32:37;13.73;;;6.50;;
51943;SDS011;37969;53.132;6.370;2022-08-21T06:35:03;14.52;;;6.18;;
51943;SDS011;37969;53.132;6.370;2022-08-21T06:37:30;18.38;;;6.85;;
51943;SDS011;37969;53.132;6.370;2022-08-21T06:39:58;13.73;;;7.03;;
51943;SDS011;37969;53.132;6.370;2022-08-21T06:42:27;11.48;;;6.35;;
51943;SDS011;37969;53.132;6.370;2022-08-21T06:44:58;17.27;;;6.20;;
51943;SDS011;37969;53.132;6.370;2022-08-21T06:47:27;14.80;;;5.93;;
51943;SDS011;37969;53.132;6.370;2022-08-21T06:49:55;12.43;;;5.55;;
51943;SDS011;37969;53.132;6.370;2022-08-21T06:52:23;14.95;;;6.28;;
51943;SDS011;37969;53.132;6.370;2022-08-21T06:54:51;11.63;;;5.43;;
51943;SDS011;37969;53.132;6.370;2022-08-21T06:57:20;12.50;;;5.90;;
51943;SDS011;37969;53.132;6.370;2022-08-21T06:59:54;14.05;;;5.43;;
51943;SDS011;37969;53.132;6.370;2022-08-21T07:02:21;14.40;;;6.15;;
51943;SDS011;37969;53.132;6.370;2022-08-21T07:04:50;11.07;;;4.70;;
51943;SDS011;37969;53.132;6.370;2022-08-21T07:07:20;11.85;;;5.57;;
51943;SDS011;37969;53.132;6.370;2022-08-21T07:09:49;10.50;;;4.90;;
51943;SDS011;37969;53.132;6.370;2022-08-21T07:12:16;13.05;;;4.85;;
51943;SDS011;37969;53.132;6.370;2022-08-21T07:14:44;14.23;;;4.72;;
51943;SDS011;37969;53.132;6.370;2022-08-21T07:17:11;14.38;;;4.70;;
51943;SDS011;37969;53.132;6.370;2022-08-21T07:19:42;14.15;;;4.45;;
51943;SDS011;37969;53.132;6.370;2022-08-21T07:22:10;13.65;;;4.05;;
51943;SDS011;37969;53.132;6.370;2022-08-21T07:24:39;13.13;;;4.38;;
51943;SDS011;37969;53.132;6.370;2022-08-21T07:27:06;9.73;;;3.80;;
51943;SDS011;37969;53.132;6.370;2022-08-21T07:29:33;11.43;;;4.25;;
51943;SDS011;37969;53.132;6.370;2022-08-21T07:32:00;12.60;;;3.63;;
51943;SDS011;37969;53.132;6.370;2022-08-21T07:34:26;13.45;;;3.75;;
51943;SDS011;37969;53.132;6.370;2022-08-21T07:36:56;12.52;;;4.07;;
51943;SDS011;37969;53.132;6.370;2022-08-21T07:39:25;11.90;;;3.90;;
51943;SDS011;37969;53.132;6.370;2022-08-21T07:41:51;9.65;;;3.42;;
51943;SDS011;37969;53.132;6.370;2022-08-21T07:44:18;11.90;;;3.55;;
51943;SDS011;37969;53.132;6.370;2022-08-21T07:46:44;13.82;;;3.90;;
51943;SDS011;37969;53.132;6.370;2022-08-21T07:49:10;12.35;;;3.60;;
51943;SDS011;37969;53.132;6.370;2022-08-21T07:51:39;7.70;;;3.40;;
51943;SDS011;37969;53.132;6.370;2022-08-21T07:54:05;10.63;;;3.33;;
51943;SDS011;37969;53.132;6.370;2022-08-21T07:56:32;13.40;;;3.90;;
51943;SDS011;37969;53.132;6.370;2022-08-21T07:59:04;8.15;;;3.33;;
51943;SDS011;37969;53.132;6.370;2022-08-21T08:01:31;10.57;;;3.60;;
51943;SDS011;37969;53.132;6.370;2022-08-21T08:04:07;12.20;;;4.10;;
51943;SDS011;37969;53.132;6.370;2022-08-21T08:06:34;12.80;;;4.00;;
51943;SDS011;37969;53.132;6.370;2022-08-21T08:09:01;13.90;;;3.95;;
51943;SDS011;37969;53.132;6.370;2022-08-21T08:11:31;13.20;;;4.53;;
51943;SDS011;37969;53.132;6.370;2022-08-21T08:13:58;14.40;;;3.72;;
51943;SDS011;37969;53.132;6.370;2022-08-21T08:16:24;16.35;;;4.00;;
51943;SDS011;37969;53.132;6.370;2022-08-21T08:18:51;17.00;;;4.18;;
51943;SDS011;37969;53.132;6.370;2022-08-21T08:21:17;12.57;;;4.25;;
51943;SDS011;37969;53.132;6.370;2022-08-21T08:23:46;11.60;;;3.55;;
51943;SDS011;37969;53.132;6.370;2022-08-21T08:26:12;9.35;;;3.25;;
51943;SDS011;37969;53.132;6.370;2022-08-21T08:28:40;10.38;;;3.08;;
51943;SDS011;37969;53.132;6.370;2022-08-21T08:31:07;11.95;;;3.78;;
51943;SDS011;37969;53.132;6.370;2022-08-21T08:33:35;12.93;;;4.18;;
51943;SDS011;37969;53.132;6.370;2022-08-21T08:36:11;13.13;;;3.95;;
51943;SDS011;37969;53.132;6.370;2022-08-21T08:38:40;15.07;;;3.90;;
51943;SDS011;37969;53.132;6.370;2022-08-21T08:41:13;15.68;;;5.20;;
51943;SDS011;37969;53.132;6.370;2022-08-21T08:43:47;11.90;;;4.03;;
51943;SDS011;37969;53.132;6.370;2022-08-21T08:46:31;15.32;;;4.05;;
51943;SDS011;37969;53.132;6.370;2022-08-21T08:49:07;11.13;;;3.88;;
51943;SDS011;37969;53.132;6.370;2022-08-21T08:51:42;12.85;;;3.70;;
51943;SDS011;37969;53.132;6.370;2022-08-21T08:54:11;11.82;;;3.35;;
51943;SDS011;37969;53.132;6.370;2022-08-21T08:56:40;13.13;;;4.15;;
51943;SDS011;37969;53.132;6.370;2022-08-21T08:59:12;17.35;;;3.90;;
51943;SDS011;37969;53.132;6.370;2022-08-21T09:01:39;12.85;;;3.40;;
51943;SDS011;37969;53.132;6.370;2022-08-21T09:04:07;16.17;;;3.85;;
51943;SDS011;37969;53.132;6.370;2022-08-21T09:06:48;15.25;;;3.53;;
51943;SDS011;37969;53.132;6.370;2022-08-21T09:09:25;13.35;;;3.72;;
51943;SDS011;37969;53.132;6.370;2022-08-21T09:14:33;14.52;;;3.47;;
51943;SDS011;37969;53.132;6.370;2022-08-21T09:17:12;14.35;;;3.90;;
51943;SDS011;37969;53.132;6.370;2022-08-21T09:22:17;13.65;;;3.60;;
51943;SDS011;37969;53.132;6.370;2022-08-21T09:24:53;11.70;;;3.22;;
51943;SDS011;37969;53.132;6.370;2022-08-21T09:27:24;12.88;;;3.78;;
51943;SDS011;37969;53.132;6.370;2022-08-21T09:29:54;12.68;;;3.78;;
51943;SDS011;37969;53.132;6.370;2022-08-21T09:32:24;13.10;;;3.55;;
51943;SDS011;37969;53.132;6.370;2022-08-21T09:37:21;11.93;;;3.55;;
51943;SDS011;37969;53.132;6.370;2022-08-21T09:39:47;14.02;;;3.70;;
51943;SDS011;37969;53.132;6.370;2022-08-21T09:42:23;12.40;;;2.60;;
51943;SDS011;37969;53.132;6.370;2022-08-21T09:45:07;14.35;;;3.50;;
51943;SDS011;37969;53.132;6.370;2022-08-21T09:47:35;12.73;;;3.38;;
51943;SDS011;37969;53.132;6.370;2022-08-21T09:50:13;11.23;;;2.83;;
51943;SDS011;37969;53.132;6.370;2022-08-21T09:52:44;11.53;;;3.00;;
51943;SDS011;37969;53.132;6.370;2022-08-21T09:55:20;9.40;;;3.15;;
51943;SDS011;37969;53.132;6.370;2022-08-21T09:58:11;12.38;;;3.58;;
51943;SDS011;37969;53.132;6.370;2022-08-21T10:00:37;11.93;;;3.00;;
51943;SDS011;37969;53.132;6.370;2022-08-21T10:03:10;13.37;;;3.00;;
51943;SDS011;37969;53.132;6.370;2022-08-21T10:05:52;11.88;;;2.85;;
51943;SDS011;37969;53.132;6.370;2022-08-21T10:08:23;10.75;;;2.90;;
51943;SDS011;37969;53.132;6.370;2022-08-21T10:10:57;11.57;;;3.60;;
51943;SDS011;37969;53.132;6.370;2022-08-21T10:13:39;14.70;;;2.85;;
51943;SDS011;37969;53.132;6.370;2022-08-21T10:18:59;13.88;;;3.03;;
51943;SDS011;37969;53.132;6.370;2022-08-21T10:21:36;15.68;;;3.08;;
51943;SDS011;37969;53.132;6.370;2022-08-21T10:26:39;8.88;;;2.83;;
51943;SDS011;37969;53.132;6.370;2022-08-21T10:29:20;11.05;;;2.92;;
51943;SDS011;37969;53.132;6.370;2022-08-21T10:31:56;9.30;;;2.35;;
51943;SDS011;37969;53.132;6.370;2022-08-21T10:34:39;9.48;;;3.03;;
51943;SDS011;37969;53.132;6.370;2022-08-21T10:37:17;13.40;;;3.28;;
51943;SDS011;37969;53.132;6.370;2022-08-21T10:39:53;8.98;;;2.70;;
51943;SDS011;37969;53.132;6.370;2022-08-21T10:42:31;12.85;;;2.67;;
51943;SDS011;37969;53.132;6.370;2022-08-21T10:45:10;9.05;;;2.83;;
51943;SDS011;37969;53.132;6.370;2022-08-21T10:47:41;14.88;;;3.05;;
51943;SDS011;37969;53.132;6.370;2022-08-21T10:50:10;12.15;;;2.75;;
51943;SDS011;37969;53.132;6.370;2022-08-21T10:52:51;13.30;;;3.50;;
51943;SDS011;37969;53.132;6.370;2022-08-21T10:55:21;12.27;;;3.17;;
51943;SDS011;37969;53.132;6.370;2022-08-21T11:00:21;12.55;;;2.90;;
51943;SDS011;37969;53.132;6.370;2022-08-21T11:02:57;9.63;;;2.70;;
51943;SDS011;37969;53.132;6.370;2022-08-21T11:05:29;14.57;;;2.80;;
51943;SDS011;37969;53.132;6.370;2022-08-21T11:08:06;8.30;;;2.47;;
51943;SDS011;37969;53.132;6.370;2022-08-21T11:10:40;16.05;;;3.53;;
51943;SDS011;37969;53.132;6.370;2022-08-21T11:13:16;10.25;;;3.03;;
51943;SDS011;37969;53.132;6.370;2022-08-21T11:15:56;8.07;;;3.00;;
51943;SDS011;37969;53.132;6.370;2022-08-21T11:18:30;10.45;;;3.10;;
51943;SDS011;37969;53.132;6.370;2022-08-21T11:21:02;10.35;;;2.97;;
51943;SDS011;37969;53.132;6.370;2022-08-21T11:24:02;10.77;;;2.97;;
51943;SDS011;37969;53.132;6.370;2022-08-21T11:26:24;12.57;;;2.90;;
51943;SDS011;37969;53.132;6.370;2022-08-21T11:28:58;8.77;;;3.28;;
51943;SDS011;37969;53.132;6.370;2022-08-21T11:31:36;11.45;;;3.22;;
51943;SDS011;37969;53.132;6.370;2022-08-21T11:34:15;10.43;;;2.47;;
51943;SDS011;37969;53.132;6.370;2022-08-21T11:36:57;7.85;;;2.22;;
51943;SDS011;37969;53.132;6.370;2022-08-21T11:42:21;7.35;;;2.53;;
51943;SDS011;37969;53.132;6.370;2022-08-21T11:45:10;9.77;;;3.17;;
51943;SDS011;37969;53.132;6.370;2022-08-21T11:47:46;8.20;;;2.47;;
51943;SDS011;37969;53.132;6.370;2022-08-21T11:50:26;12.90;;;2.80;;
51943;SDS011;37969;53.132;6.370;2022-08-21T11:52:56;10.52;;;2.70;;
51943;SDS011;37969;53.132;6.370;2022-08-21T11:55:38;12.98;;;2.90;;
51943;SDS011;37969;53.132;6.370;2022-08-21T11:58:20;7.85;;;2.95;;
51943;SDS011;37969;53.132;6.370;2022-08-21T12:00:50;6.90;;;2.50;;
51943;SDS011;37969;53.132;6.370;2022-08-21T12:03:25;10.75;;;2.85;;
51943;SDS011;37969;53.132;6.370;2022-08-21T12:05:54;10.05;;;2.70;;
51943;SDS011;37969;53.132;6.370;2022-08-21T12:08:27;12.75;;;3.28;;
51943;SDS011;37969;53.132;6.370;2022-08-21T12:11:03;9.60;;;2.33;;
51943;SDS011;37969;53.132;6.370;2022-08-21T12:13:31;5.22;;;2.28;;
51943;SDS011;37969;53.132;6.370;2022-08-21T12:16:09;9.25;;;2.47;;
51943;SDS011;37969;53.132;6.370;2022-08-21T12:18:43;8.77;;;2.38;;
51943;SDS011;37969;53.132;6.370;2022-08-21T12:21:19;7.80;;;3.03;;
51943;SDS011;37969;53.132;6.370;2022-08-21T12:23:59;6.72;;;2.15;;
51943;SDS011;37969;53.132;6.370;2022-08-21T12:26:29;6.40;;;2.10;;
51943;SDS011;37969;53.132;6.370;2022-08-21T12:29:03;7.85;;;2.00;;
51943;SDS011;37969;53.132;6.370;2022-08-21T12:31:30;8.57;;;2.42;;
51943;SDS011;37969;53.132;6.370;2022-08-21T12:33:58;5.30;;;1.70;;
51943;SDS011;37969;53.132;6.370;2022-08-21T12:36:40;6.15;;;2.10;;
51943;SDS011;37969;53.132;6.370;2022-08-21T12:39:11;6.03;;;2.00;;
51943;SDS011;37969;53.132;6.370;2022-08-21T12:41:46;10.80;;;1.88;;
51943;SDS011;37969;53.132;6.370;2022-08-21T12:44:20;6.40;;;1.95;;
51943;SDS011;37969;53.132;6.370;2022-08-21T12:46:51;7.45;;;1.83;;
51943;SDS011;37969;53.132;6.370;2022-08-21T12:49:26;4.70;;;1.67;;
51943;SDS011;37969;53.132;6.370;2022-08-21T12:52:01;10.63;;;2.03;;
51943;SDS011;37969;53.132;6.370;2022-08-21T12:54:32;8.40;;;2.25;;
51943;SDS011;37969;53.132;6.370;2022-08-21T12:57:08;6.88;;;2.22;;
51943;SDS011;37969;53.132;6.370;2022-08-21T12:59:38;6.75;;;2.05;;
51943;SDS011;37969;53.132;6.370;2022-08-21T13:02:12;7.53;;;1.90;;
51943;SDS011;37969;53.132;6.370;2022-08-21T13:04:42;5.20;;;2.08;;
51943;SDS011;37969;53.132;6.370;2022-08-21T13:07:16;8.77;;;2.05;;
51943;SDS011;37969;53.132;6.370;2022-08-21T13:09:59;7.63;;;1.98;;
51943;SDS011;37969;53.132;6.370;2022-08-21T13:12:26;8.68;;;2.03;;
51943;SDS011;37969;53.132;6.370;2022-08-21T13:14:56;5.50;;;1.73;;
51943;SDS011;37969;53.132;6.370;2022-08-21T13:17:22;7.97;;;2.15;;
51943;SDS011;37969;53.132;6.370;2022-08-21T13:19:53;7.07;;;1.88;;
51943;SDS011;37969;53.132;6.370;2022-08-21T13:22:23;7.75;;;2.20;;
51943;SDS011;37969;53.132;6.370;2022-08-21T13:24:50;8.10;;;2.10;;
51943;SDS011;37969;53.132;6.370;2022-08-21T13:27:21;8.32;;;1.80;;
51943;SDS011;37969;53.132;6.370;2022-08-21T13:30:01;7.38;;;2.13;;
51943;SDS011;37969;53.132;6.370;2022-08-21T13:32:28;7.53;;;1.80;;
51943;SDS011;37969;53.132;6.370;2022-08-21T13:34:57;8.48;;;1.90;;
51943;SDS011;37969;53.132;6.370;2022-08-21T13:37:27;6.68;;;1.98;;
51943;SDS011;37969;53.132;6.370;2022-08-21T13:39:55;6.72;;;1.95;;
51943;SDS011;37969;53.132;6.370;2022-08-21T13:44:55;4.75;;;2.15;;
51943;SDS011;37969;53.132;6.370;2022-08-21T13:47:23;7.72;;;2.20;;
51943;SDS011;37969;53.132;6.370;2022-08-21T13:49:52;5.35;;;1.90;;
51943;SDS011;37969;53.132;6.370;2022-08-21T13:52:21;7.15;;;2.10;;
51943;SDS011;37969;53.132;6.370;2022-08-21T13:54:52;7.65;;;2.17;;
51943;SDS011;37969;53.132;6.370;2022-08-21T13:57:27;5.28;;;2.05;;
51943;SDS011;37969;53.132;6.370;2022-08-21T14:00:09;4.88;;;1.83;;
51943;SDS011;37969;53.132;6.370;2022-08-21T14:02:39;8.25;;;1.70;;
51943;SDS011;37969;53.132;6.370;2022-08-21T14:05:06;6.17;;;1.93;;
51943;SDS011;37969;53.132;6.370;2022-08-21T14:07:38;7.80;;;2.63;;
51943;SDS011;37969;53.132;6.370;2022-08-21T14:10:11;6.43;;;2.10;;
51943;SDS011;37969;53.132;6.370;2022-08-21T14:12:43;8.48;;;2.00;;
51943;SDS011;37969;53.132;6.370;2022-08-21T14:15:12;5.05;;;1.83;;
51943;SDS011;37969;53.132;6.370;2022-08-21T14:17:39;5.82;;;1.75;;
51943;SDS011;37969;53.132;6.370;2022-08-21T14:20:11;5.20;;;1.85;;
51943;SDS011;37969;53.132;6.370;2022-08-21T14:22:40;6.80;;;1.70;;
51943;SDS011;37969;53.132;6.370;2022-08-21T14:25:10;6.53;;;2.22;;
51943;SDS011;37969;53.132;6.370;2022-08-21T14:27:42;6.95;;;1.80;;
51943;SDS011;37969;53.132;6.370;2022-08-21T14:30:12;8.10;;;2.22;;
51943;SDS011;37969;53.132;6.370;2022-08-21T14:32:39;4.43;;;1.90;;
51943;SDS011;37969;53.132;6.370;2022-08-21T14:35:09;6.18;;;2.15;;
51943;SDS011;37969;53.132;6.370;2022-08-21T14:37:41;4.95;;;2.05;;
51943;SDS011;37969;53.132;6.370;2022-08-21T14:40:08;8.50;;;2.17;;
51943;SDS011;37969;53.132;6.370;2022-08-21T14:42:35;7.85;;;2.08;;
51943;SDS011;37969;53.132;6.370;2022-08-21T14:45:10;4.53;;;1.65;;
51943;SDS011;37969;53.132;6.370;2022-08-21T14:47:39;5.82;;;2.05;;
51943;SDS011;37969;53.132;6.370;2022-08-21T14:50:05;7.90;;;2.08;;
51943;SDS011;37969;53.132;6.370;2022-08-21T14:52:33;7.68;;;2.25;;
51943;SDS011;37969;53.132;6.370;2022-08-21T14:55:03;6.15;;;1.98;;
51943;SDS011;37969;53.132;6.370;2022-08-21T14:57:30;7.32;;;2.00;;
51943;SDS011;37969;53.132;6.370;2022-08-21T14:59:57;4.60;;;1.85;;
51943;SDS011;37969;53.132;6.370;2022-08-21T15:02:28;5.57;;;1.80;;
51943;SDS011;37969;53.132;6.370;2022-08-21T15:04:59;6.30;;;1.90;;
51943;SDS011;37969;53.132;6.370;2022-08-21T15:07:30;4.82;;;1.75;;
51943;SDS011;37969;53.132;6.370;2022-08-21T15:09:57;4.90;;;2.05;;
51943;SDS011;37969;53.132;6.370;2022-08-21T15:12:24;6.20;;;1.80;;
51943;SDS011;37969;53.132;6.370;2022-08-21T15:14:51;5.85;;;1.67;;
51943;SDS011;37969;53.132;6.370;2022-08-21T15:17:17;11.23;;;1.90;;
51943;SDS011;37969;53.132;6.370;2022-08-21T15:19:45;7.30;;;1.80;;